LFAT 221130Z AUTO 24017KT 200V280 9000 OVC012 10/08 Q1022 TEMPO 22020G30KT 2000 DZ OVC004

ElémentsDécodage
LFAT Station météo située sur l'aérodrome de LE-TOUQUET Paris-Plage
221130Z émis le 22 du mois à 11h30 UTC
AUTO Bulletin édité par un automate
24017KT vent du 240°, 17 noeuds
200V280 vent de direction variable entre 200° et 280°
9000 visibilité horizontale de 9000 mètres
OVC012 couverture nuageuse totale (8/8) à 1200 pieds
10/08 température 10°C, point de rosée 08°C
 soit une humidité relative de 87%
Q1022 la pression au niveau de la mer (QNH) est de 1022 hPa
TEMPO fluctuation temporaire prévue
22020G30KT vent du 220°, moyenne: 20 noeuds, avec rafales à 30 noeuds
2000 visibilité horizontale de 2000 mètres
DZ bruine
OVC004 couverture nuageuse totale (8/8) à 400 pieds